createdAt,value
2022-11-09T00:01:36.537Z,84.66
2022-11-09T00:04:06.543Z,84.31
2022-11-09T00:06:37.529Z,84.06
2022-11-09T00:09:12.599Z,83.96
2022-11-09T00:11:40.487Z,84.47
2022-11-09T00:14:14.295Z,84.23
2022-11-09T00:16:43.925Z,84.32
2022-11-09T00:19:11.571Z,84.33
2022-11-09T00:21:40.097Z,84.06
2022-11-09T00:24:10.612Z,84.32
2022-11-09T00:26:38.544Z,84.15
2022-11-09T00:29:06.751Z,83.80
2022-11-09T00:31:36.100Z,84.18
2022-11-09T00:34:04.284Z,83.92
2022-11-09T00:36:32.272Z,83.45
2022-11-09T00:39:03.405Z,84.12
2022-11-09T00:41:31.676Z,83.57
2022-11-09T00:43:59.715Z,83.81
2022-11-09T00:46:28.419Z,83.32
2022-11-09T00:48:56.881Z,83.41
2022-11-09T00:51:25.036Z,83.63
2022-11-09T00:53:55.272Z,83.48
2022-11-09T00:56:23.312Z,83.27
2022-11-09T00:58:56.197Z,83.78
2022-11-09T01:01:25.670Z,83.25
2022-11-09T01:03:54.497Z,82.92
2022-11-09T01:06:24.946Z,82.70
2022-11-09T01:08:54.177Z,83.13
2022-11-09T01:11:24.636Z,83.03
2022-11-09T01:13:53.161Z,82.64
2022-11-09T01:16:23.598Z,82.21
2022-11-09T01:18:56.529Z,82.74
2022-11-09T01:21:24.729Z,82.55
2022-11-09T01:23:52.984Z,82.50
2022-11-09T01:26:21.003Z,82.24
2022-11-09T01:28:49.005Z,82.29
2022-11-09T01:31:23.470Z,82.09
2022-11-09T01:33:52.146Z,82.32
2022-11-09T01:36:25.218Z,81.96
2022-11-09T01:38:54.332Z,81.95
2022-11-09T01:41:28.579Z,81.77
2022-11-09T01:44:20.226Z,81.99
2022-11-09T01:46:51.092Z,82.09
2022-11-09T01:49:48.410Z,81.93
2022-11-09T01:52:30.295Z,81.48
2022-11-09T01:55:03.918Z,81.46
2022-11-09T01:57:42.639Z,81.71
2022-11-09T02:00:14.109Z,81.57
2022-11-09T02:02:47.935Z,80.93
2022-11-09T02:05:20.547Z,81.13
2022-11-09T02:07:50.148Z,81.01
2022-11-09T02:10:38.152Z,81.25
2022-11-09T02:13:10.241Z,80.93
2022-11-09T02:15:58.104Z,81.14
2022-11-09T02:18:26.456Z,81.07
2022-11-09T02:20:57.864Z,80.92
2022-11-09T02:23:28.352Z,80.89
2022-11-09T02:26:11.877Z,80.91
2022-11-09T02:28:45.275Z,80.85
2022-11-09T02:31:16.716Z,80.64
2022-11-09T02:34:01.883Z,81.00
2022-11-09T02:36:29.838Z,81.07
2022-11-09T02:38:59.118Z,80.45
2022-11-09T02:41:30.785Z,80.82
2022-11-09T02:44:01.329Z,80.32
2022-11-09T02:46:35.152Z,80.49
2022-11-09T02:49:04.687Z,80.63
2022-11-09T02:51:33.033Z,80.34
2022-11-09T02:54:01.108Z,80.78
2022-11-09T02:56:30.730Z,80.29
2022-11-09T02:58:58.741Z,80.48
2022-11-09T03:01:26.819Z,80.21
2022-11-09T03:03:55.852Z,79.78
2022-11-09T03:06:34.982Z,80.04
2022-11-09T03:09:09.432Z,79.79
2022-11-09T03:11:39.140Z,79.52
2022-11-09T03:14:10.333Z,79.59
2022-11-09T03:16:40.050Z,79.33
2022-11-09T03:19:08.486Z,79.28
2022-11-09T03:21:36.602Z,79.22
2022-11-09T03:24:04.811Z,79.22
2022-11-09T03:26:33.898Z,79.05
2022-11-09T03:29:01.812Z,78.88
2022-11-09T03:31:30.807Z,79.04
2022-11-09T03:33:59.011Z,78.43
2022-11-09T03:36:27.054Z,78.81
2022-11-09T03:38:55.201Z,78.79
2022-11-09T03:41:23.173Z,78.81
2022-11-09T03:43:51.182Z,78.78
2022-11-09T03:46:19.271Z,78.25
2022-11-09T03:48:47.213Z,78.07
2022-11-09T03:51:15.283Z,78.25
2022-11-09T03:53:43.380Z,78.17
2022-11-09T03:56:11.365Z,77.64
2022-11-09T03:58:39.408Z,77.52
2022-11-09T04:01:07.639Z,77.66
2022-11-09T04:03:35.670Z,77.64
2022-11-09T04:06:03.765Z,77.60
2022-11-09T04:08:31.966Z,77.41
2022-11-09T04:10:59.945Z,77.21
2022-11-09T04:13:27.988Z,76.94
2022-11-09T04:15:56.196Z,77.09
2022-11-09T04:18:24.202Z,77.22
2022-11-09T04:20:52.219Z,76.70
2022-11-09T04:23:21.430Z,76.75
2022-11-09T04:25:49.698Z,76.75
2022-11-09T04:28:17.677Z,76.64
2022-11-09T04:30:46.557Z,76.54
2022-11-09T04:33:14.691Z,76.66
2022-11-09T04:35:42.818Z,76.56
2022-11-09T04:38:14.177Z,76.28
2022-11-09T04:40:42.448Z,76.52
2022-11-09T04:43:14.169Z,76.27
2022-11-09T04:45:42.647Z,76.37
2022-11-09T04:48:12.729Z,75.87
2022-11-09T04:50:40.763Z,76.18
2022-11-09T04:53:14.100Z,75.62
2022-11-09T04:55:42.880Z,75.71
2022-11-09T04:58:10.943Z,75.89
2022-11-09T05:00:40.579Z,75.67
2022-11-09T05:03:08.857Z,75.58
2022-11-09T05:05:38.492Z,75.61
2022-11-09T05:08:08.305Z,75.62
2022-11-09T05:10:38.081Z,75.47
2022-11-09T05:13:09.355Z,75.50
2022-11-09T05:15:40.262Z,75.35
2022-11-09T05:18:09.911Z,75.59
2022-11-09T05:20:38.143Z,75.19
2022-11-09T05:23:24.813Z,75.08
2022-11-09T05:25:52.787Z,75.30
2022-11-09T05:28:20.781Z,75.34
2022-11-09T05:30:48.897Z,75.57
2022-11-09T05:33:18.276Z,75.29
2022-11-09T05:35:46.150Z,75.10
2022-11-09T05:38:18.171Z,75.33
2022-11-09T05:40:52.437Z,75.13
2022-11-09T05:43:22.726Z,75.01
2022-11-09T05:45:50.967Z,75.15
2022-11-09T05:48:19.490Z,75.01
2022-11-09T05:50:47.633Z,75.01
2022-11-09T05:53:15.674Z,74.65
2022-11-09T05:55:43.669Z,74.77
2022-11-09T05:58:11.926Z,74.56
2022-11-09T06:00:40.035Z,74.80
2022-11-09T06:03:10.233Z,74.46
2022-11-09T06:05:43.292Z,74.43
2022-11-09T06:08:16.026Z,73.76
2022-11-09T06:10:44.454Z,73.99
2022-11-09T06:13:12.921Z,74.05
2022-11-09T06:15:41.012Z,73.75
2022-11-09T06:18:09.139Z,73.78
2022-11-09T06:20:37.318Z,73.38
2022-11-09T06:23:05.512Z,73.60
2022-11-09T06:25:34.390Z,73.27
2022-11-09T06:28:02.559Z,73.12
2022-11-09T06:30:30.798Z,73.34
2022-11-09T06:33:00.763Z,73.19
2022-11-09T06:35:29.689Z,72.75
2022-11-09T06:38:01.869Z,73.05
2022-11-09T06:40:30.133Z,72.58
2022-11-09T06:43:00.898Z,73.16
2022-11-09T06:45:30.872Z,72.83
2022-11-09T06:48:00.582Z,72.76
2022-11-09T06:50:32.612Z,72.77
2022-11-09T06:53:03.729Z,72.99
2022-11-09T06:55:33.404Z,72.78
2022-11-09T06:58:01.729Z,72.72
2022-11-09T07:00:29.710Z,72.59
2022-11-09T07:02:58.997Z,72.36
2022-11-09T07:05:30.244Z,72.30
2022-11-09T07:07:58.460Z,72.90
2022-11-09T07:10:26.440Z,72.60
2022-11-09T07:12:59.361Z,72.68
2022-11-09T07:15:27.271Z,72.53
2022-11-09T07:17:59.315Z,72.96
2022-11-09T07:20:28.525Z,72.45
2022-11-09T07:22:56.606Z,72.68
2022-11-09T07:25:26.420Z,72.52
2022-11-09T07:27:56.673Z,72.27
2022-11-09T07:30:24.624Z,72.57
2022-11-09T07:33:09.940Z,72.57
2022-11-09T07:35:38.686Z,72.95
2022-11-09T07:38:06.692Z,73.13
2022-11-09T07:40:35.157Z,72.33
2022-11-09T07:43:06.540Z,72.30
2022-11-09T07:45:36.624Z,72.36
2022-11-09T07:48:10.512Z,72.44
2022-11-09T07:50:41.897Z,72.52
2022-11-09T07:53:13.533Z,72.90
2022-11-09T07:55:42.745Z,72.27
2022-11-09T07:58:15.340Z,72.42
2022-11-09T08:00:45.381Z,72.41
2022-11-09T08:03:14.948Z,72.67
2022-11-09T08:05:43.061Z,72.66
2022-11-09T08:08:12.566Z,72.66
2022-11-09T08:10:40.917Z,72.58
2022-11-09T08:13:16.405Z,72.22
2022-11-09T08:15:45.255Z,72.44
2022-11-09T08:18:16.628Z,72.88
2022-11-09T08:20:45.701Z,72.69
2022-11-09T08:23:16.130Z,72.80
2022-11-09T08:25:44.290Z,72.33
2022-11-09T08:28:14.974Z,72.57
2022-11-09T08:30:44.445Z,72.55
2022-11-09T08:33:13.377Z,72.66
2022-11-09T08:35:41.597Z,72.79
2022-11-09T08:38:10.855Z,72.50
2022-11-09T08:40:38.880Z,72.93
2022-11-09T08:43:10.413Z,72.31
2022-11-09T08:45:40.409Z,72.74
2022-11-09T08:48:11.009Z,72.67
2022-11-09T08:50:41.643Z,72.72
2022-11-09T08:53:09.950Z,72.68
2022-11-09T08:55:38.076Z,72.77
2022-11-09T08:58:06.412Z,72.89
2022-11-09T09:00:34.577Z,72.63
2022-11-09T09:03:06.773Z,72.43
2022-11-09T09:05:38.332Z,73.04
2022-11-09T09:08:07.584Z,72.47
2022-11-09T09:10:36.206Z,72.82
2022-11-09T09:13:08.928Z,72.72
2022-11-09T09:15:36.906Z,72.60
2022-11-09T09:18:05.297Z,72.80
2022-11-09T09:20:34.358Z,72.84
2022-11-09T09:23:02.408Z,72.64
2022-11-09T09:25:30.584Z,73.04
2022-11-09T09:27:58.943Z,73.10
2022-11-09T09:30:27.077Z,72.85
2022-11-09T09:33:00.285Z,72.80
2022-11-09T09:35:29.459Z,72.92
2022-11-09T09:37:58.974Z,72.81
2022-11-09T09:40:56.164Z,72.74
2022-11-09T09:43:42.976Z,73.13
2022-11-09T09:46:30.237Z,73.20
2022-11-09T09:49:04.892Z,72.84
2022-11-09T09:51:45.177Z,73.14
2022-11-09T09:54:20.435Z,73.11
2022-11-09T09:56:51.784Z,73.25
2022-11-09T09:59:44.313Z,73.50
2022-11-09T10:02:35.399Z,73.39
2022-11-09T10:05:12.307Z,73.42
2022-11-09T10:07:51.245Z,72.76
2022-11-09T10:10:31.374Z,73.03
2022-11-09T10:13:20.995Z,73.29
2022-11-09T10:16:03.668Z,73.28
2022-11-09T10:18:46.621Z,73.47
2022-11-09T10:21:21.403Z,73.74
2022-11-09T10:23:56.063Z,73.06
2022-11-09T10:26:50.141Z,73.57
2022-11-09T10:29:24.943Z,73.69
2022-11-09T10:32:02.555Z,73.86
2022-11-09T10:34:39.904Z,73.71
2022-11-09T10:37:17.277Z,73.86
2022-11-09T10:40:22.666Z,73.77
2022-11-09T10:42:55.784Z,74.20
2022-11-09T10:45:29.875Z,74.08
2022-11-09T10:47:58.257Z,74.42
2022-11-09T10:50:36.077Z,74.07
2022-11-09T10:53:19.923Z,74.13
2022-11-09T10:57:05.492Z,74.10
2022-11-09T10:59:55.114Z,74.13
2022-11-09T11:02:31.440Z,74.15
2022-11-09T11:05:08.688Z,74.52
2022-11-09T11:07:39.156Z,74.22
2022-11-09T11:10:12.845Z,74.57
2022-11-09T11:12:40.834Z,74.37
2022-11-09T11:15:29.983Z,74.07
2022-11-09T11:18:12.375Z,74.56
2022-11-09T11:20:40.644Z,74.17
2022-11-09T11:23:18.812Z,74.21
2022-11-09T11:25:57.876Z,74.61
2022-11-09T11:28:43.401Z,74.61
2022-11-09T11:31:18.306Z,74.15
2022-11-09T11:33:47.152Z,74.46
2022-11-09T11:36:34.643Z,74.83
2022-11-09T11:39:40.426Z,74.44
2022-11-09T11:42:34.728Z,74.08
2022-11-09T11:45:38.805Z,74.19
2022-11-09T11:48:34.377Z,74.33
2022-11-09T11:51:10.682Z,74.60
2022-11-09T11:54:12.643Z,74.41
2022-11-09T11:56:48.959Z,74.72
2022-11-09T11:59:39.904Z,74.25
2022-11-09T12:02:22.835Z,74.21
2022-11-09T12:04:52.744Z,74.28
2022-11-09T12:07:57.177Z,74.41
2022-11-09T12:10:57.679Z,74.37
2022-11-09T12:13:25.292Z,74.47
2022-11-09T12:16:00.926Z,74.55
2022-11-09T12:18:35.606Z,74.52
2022-11-09T12:21:16.223Z,74.47
2022-11-09T12:24:05.805Z,74.23
2022-11-09T12:26:36.360Z,74.19
2022-11-09T12:29:08.993Z,74.66
2022-11-09T12:31:49.119Z,74.51
2022-11-09T12:34:58.279Z,74.57
2022-11-09T12:37:37.960Z,74.34
2022-11-09T12:40:24.034Z,74.51
2022-11-09T12:43:07.811Z,74.40
2022-11-09T12:45:39.382Z,74.39
2022-11-09T12:48:37.117Z,74.30
2022-11-09T12:51:08.332Z,74.56
2022-11-09T12:53:38.574Z,74.59
2022-11-09T12:56:22.308Z,74.24
2022-11-09T12:58:50.523Z,74.11
2022-11-09T13:01:27.605Z,74.31
2022-11-09T13:04:00.314Z,74.59
2022-11-09T13:06:30.555Z,74.59
2022-11-09T13:09:07.652Z,74.82
2022-11-09T13:11:42.517Z,74.17
2022-11-09T13:14:33.302Z,74.06
2022-11-09T13:17:22.435Z,74.38
2022-11-09T13:19:57.355Z,74.50
2022-11-09T13:22:27.993Z,74.41
2022-11-09T13:25:02.655Z,74.34
2022-11-09T13:27:45.991Z,74.95
2022-11-09T13:30:26.471Z,74.84
2022-11-09T13:33:12.353Z,74.66
2022-11-09T13:35:43.875Z,74.69
2022-11-09T13:38:23.055Z,74.51
2022-11-09T13:40:52.823Z,75.03
2022-11-09T13:43:29.227Z,74.75
2022-11-09T13:45:58.930Z,74.61
2022-11-09T13:48:40.743Z,74.87
2022-11-09T13:51:14.845Z,74.71
2022-11-09T13:53:54.445Z,74.80
2022-11-09T13:56:27.043Z,75.10
2022-11-09T13:59:10.163Z,74.69
2022-11-09T14:01:53.641Z,74.97
2022-11-09T14:04:30.570Z,74.75
2022-11-09T14:07:04.290Z,75.22
2022-11-09T14:10:08.202Z,74.70
2022-11-09T14:13:01.702Z,75.07
2022-11-09T14:15:51.203Z,74.55
2022-11-09T14:18:44.732Z,75.01
2022-11-09T14:21:29.806Z,75.01
2022-11-09T14:24:23.091Z,74.98
2022-11-09T14:27:17.129Z,74.71
2022-11-09T14:29:50.297Z,74.94
2022-11-09T14:32:37.710Z,75.16
2022-11-09T14:35:28.699Z,75.09
2022-11-09T14:37:58.676Z,75.19
2022-11-09T14:40:32.447Z,75.32
2022-11-09T14:43:04.598Z,75.00
2022-11-09T14:45:33.127Z,75.09
2022-11-09T14:48:01.428Z,75.11
2022-11-09T14:50:38.122Z,75.21
2022-11-09T14:53:07.144Z,75.27
2022-11-09T14:55:41.932Z,74.99
2022-11-09T14:58:15.181Z,74.80
2022-11-09T15:00:46.150Z,75.59
2022-11-09T15:03:30.524Z,75.25
2022-11-09T15:06:11.134Z,75.29
2022-11-09T15:08:50.706Z,75.45
2022-11-09T15:11:19.059Z,75.05
2022-11-09T15:13:48.933Z,75.62
2022-11-09T15:16:27.865Z,75.58
2022-11-09T15:18:55.990Z,75.33
2022-11-09T15:21:45.254Z,75.51
2022-11-09T15:24:13.371Z,75.32
2022-11-09T15:26:47.982Z,75.47
2022-11-09T15:29:27.848Z,75.54
2022-11-09T15:32:24.909Z,75.19
2022-11-09T15:34:56.348Z,75.49
2022-11-09T15:37:47.789Z,75.64
2022-11-09T15:40:20.973Z,75.33
2022-11-09T15:42:49.066Z,75.31
2022-11-09T15:45:20.232Z,75.46
2022-11-09T15:47:55.237Z,75.01
2022-11-09T15:50:26.924Z,75.31
2022-11-09T15:52:54.929Z,75.54
2022-11-09T15:55:24.986Z,75.13
2022-11-09T15:57:55.621Z,75.41
2022-11-09T16:00:24.229Z,75.10
2022-11-09T16:02:52.441Z,75.10
2022-11-09T16:05:20.414Z,75.45
2022-11-09T16:07:56.787Z,75.43
2022-11-09T16:10:27.854Z,75.50
2022-11-09T16:12:56.622Z,75.36
2022-11-09T16:15:27.553Z,74.96
2022-11-09T16:17:55.605Z,74.94
2022-11-09T16:20:23.690Z,75.13
2022-11-09T16:22:51.814Z,75.42
2022-11-09T16:25:19.806Z,75.03
2022-11-09T16:27:50.696Z,74.89
2022-11-09T16:30:22.674Z,75.08
2022-11-09T16:32:50.862Z,74.91
2022-11-09T16:35:27.589Z,74.60
2022-11-09T16:37:58.776Z,75.11
2022-11-09T16:40:28.399Z,74.55
2022-11-09T16:42:56.388Z,74.74
2022-11-09T16:45:26.885Z,75.01
2022-11-09T16:47:59.572Z,74.71
2022-11-09T16:50:27.733Z,74.71
2022-11-09T16:52:58.544Z,74.67
2022-11-09T16:55:26.566Z,74.81
2022-11-09T16:57:55.157Z,75.40
2022-11-09T17:00:42.398Z,74.85
2022-11-09T17:03:16.382Z,74.64
2022-11-09T17:05:44.838Z,74.73
2022-11-09T17:08:13.713Z,74.68
2022-11-09T17:10:44.086Z,74.60
2022-11-09T17:13:13.725Z,74.95
2022-11-09T17:15:49.033Z,75.11
2022-11-09T17:18:17.268Z,75.27
2022-11-09T17:20:51.416Z,75.28
2022-11-09T17:23:20.337Z,74.70
2022-11-09T17:26:02.983Z,74.81
2022-11-09T17:28:32.440Z,74.52
2022-11-09T17:31:00.443Z,75.00
2022-11-09T17:33:29.974Z,75.20
2022-11-09T17:36:02.844Z,75.19
2022-11-09T17:38:31.594Z,74.91
2022-11-09T17:41:08.272Z,74.98
2022-11-09T17:43:38.859Z,74.80
2022-11-09T17:46:09.888Z,75.10
2022-11-09T17:48:40.882Z,75.21
2022-11-09T17:51:09.750Z,75.21
2022-11-09T17:53:37.955Z,75.06
2022-11-09T17:56:06.907Z,75.00
2022-11-09T17:58:35.963Z,75.05
2022-11-09T18:01:13.378Z,75.11
2022-11-09T18:03:42.051Z,75.47
2022-11-09T18:06:14.949Z,75.05
2022-11-09T18:08:44.431Z,75.03
2022-11-09T18:11:13.233Z,75.48
2022-11-09T18:13:43.947Z,75.47
2022-11-09T18:16:17.629Z,75.42
2022-11-09T18:18:46.447Z,75.36
2022-11-09T18:21:19.689Z,75.46
2022-11-09T18:23:47.837Z,75.45
2022-11-09T18:26:15.876Z,75.12
2022-11-09T18:28:44.128Z,75.41
2022-11-09T18:31:14.539Z,75.27
2022-11-09T18:33:43.757Z,75.26
2022-11-09T18:36:19.803Z,75.18
2022-11-09T18:38:48.163Z,75.42
2022-11-09T18:41:19.363Z,75.69
2022-11-09T18:43:49.702Z,75.28
2022-11-09T18:46:20.187Z,75.71
2022-11-09T18:48:54.372Z,75.82
2022-11-09T18:51:22.554Z,75.91
2022-11-09T18:53:50.540Z,75.66
2022-11-09T18:56:25.377Z,75.58
2022-11-09T18:58:55.721Z,75.88
2022-11-09T19:01:26.269Z,75.61
2022-11-09T19:03:59.339Z,75.27
2022-11-09T19:06:28.693Z,75.44
2022-11-09T19:09:15.384Z,75.74
2022-11-09T19:11:43.548Z,75.58
2022-11-09T19:14:11.845Z,75.08
2022-11-09T19:16:41.567Z,75.50
2022-11-09T19:19:12.822Z,75.22
2022-11-09T19:21:44.288Z,75.47
2022-11-09T19:24:15.071Z,75.15
2022-11-09T19:26:43.059Z,75.06
2022-11-09T19:29:13.399Z,75.05
2022-11-09T19:31:44.878Z,75.56
2022-11-09T19:34:15.335Z,75.16
2022-11-09T19:36:46.331Z,75.27
2022-11-09T19:39:16.626Z,75.19
2022-11-09T19:41:44.888Z,74.89
2022-11-09T19:44:18.187Z,75.59
2022-11-09T19:46:48.321Z,74.92
2022-11-09T19:49:16.334Z,74.88
2022-11-09T19:51:44.374Z,74.84
2022-11-09T19:54:15.644Z,75.39
2022-11-09T19:56:43.697Z,75.18
2022-11-09T19:59:15.406Z,74.77
2022-11-09T20:01:45.666Z,75.08
2022-11-09T20:04:13.778Z,75.04
2022-11-09T20:06:42.262Z,75.06
2022-11-09T20:09:10.528Z,75.11
2022-11-09T20:11:57.181Z,74.85
2022-11-09T20:14:25.266Z,75.17
2022-11-09T20:16:54.736Z,74.88
2022-11-09T20:19:24.388Z,75.17
2022-11-09T20:21:52.560Z,74.44
2022-11-09T20:24:20.584Z,74.94
2022-11-09T20:26:48.567Z,75.33
2022-11-09T20:29:16.706Z,75.03
2022-11-09T20:31:44.660Z,75.10
2022-11-09T20:34:12.727Z,74.80
2022-11-09T20:36:43.306Z,74.61
2022-11-09T20:39:11.440Z,75.04
2022-11-09T20:41:39.750Z,75.35
2022-11-09T20:44:08.071Z,74.87
2022-11-09T20:46:36.952Z,74.72
2022-11-09T20:49:05.862Z,75.33
2022-11-09T20:51:34.017Z,75.26
2022-11-09T20:54:06.818Z,74.80
2022-11-09T20:56:35.474Z,75.25
2022-11-09T20:59:04.779Z,74.91
2022-11-09T21:01:32.897Z,74.87
2022-11-09T21:04:02.089Z,75.38
2022-11-09T21:06:30.377Z,75.27
2022-11-09T21:09:01.051Z,75.43
2022-11-09T21:11:59.004Z,75.18
2022-11-09T21:14:27.235Z,75.30
2022-11-09T21:16:55.289Z,75.54
2022-11-09T21:19:23.482Z,75.01
2022-11-09T21:21:52.607Z,75.34
2022-11-09T21:24:40.711Z,75.15
2022-11-09T21:27:30.004Z,75.42
2022-11-09T21:29:58.367Z,75.11
2022-11-09T21:32:26.446Z,75.34
2022-11-09T21:34:54.465Z,75.27
2022-11-09T21:37:22.559Z,74.99
2022-11-09T21:39:50.626Z,75.16
2022-11-09T21:42:18.697Z,75.08
2022-11-09T21:44:46.859Z,75.26
2022-11-09T21:47:14.846Z,75.18
2022-11-09T21:49:42.828Z,75.32
2022-11-09T21:52:10.962Z,75.04
2022-11-09T21:54:39.578Z,74.95
2022-11-09T21:57:07.606Z,74.91
2022-11-09T21:59:35.818Z,75.06
2022-11-09T22:02:04.855Z,75.14
2022-11-09T22:04:34.565Z,74.79
2022-11-09T22:07:02.672Z,75.25
2022-11-09T22:09:50.646Z,75.33
2022-11-09T22:12:38.581Z,75.15
2022-11-09T22:15:25.310Z,75.21
2022-11-09T22:17:56.667Z,74.99
2022-11-09T22:20:42.782Z,75.24
2022-11-09T22:23:10.988Z,74.97
2022-11-09T22:25:41.661Z,75.26
2022-11-09T22:28:12.007Z,75.13
2022-11-09T22:30:40.230Z,75.72
2022-11-09T22:33:08.273Z,75.14
2022-11-09T22:35:36.230Z,75.32
2022-11-09T22:38:05.823Z,75.17
2022-11-09T22:40:33.471Z,75.66
2022-11-09T22:43:01.353Z,75.50
2022-11-09T22:45:29.511Z,75.25
2022-11-09T22:47:57.346Z,75.47
2022-11-09T22:50:25.369Z,75.27
2022-11-09T22:53:00.830Z,75.86
2022-11-09T22:55:31.376Z,75.61
2022-11-09T22:59:00.673Z,76.05
2022-11-09T23:01:28.903Z,75.66
2022-11-09T23:03:56.934Z,75.77
2022-11-09T23:06:25.353Z,75.91
2022-11-09T23:08:53.307Z,75.75
2022-11-09T23:11:23.410Z,76.23
2022-11-09T23:13:57.763Z,76.54
2022-11-09T23:16:26.080Z,76.41
2022-11-09T23:18:56.982Z,76.34
2022-11-09T23:21:31.633Z,76.49
2022-11-09T23:24:03.159Z,76.22
2022-11-09T23:26:31.948Z,76.46
2022-11-09T23:29:01.210Z,76.66
2022-11-09T23:31:29.213Z,76.50
2022-11-09T23:33:58.669Z,76.91
2022-11-09T23:36:27.561Z,77.10
2022-11-09T23:38:55.668Z,76.86
2022-11-09T23:41:23.739Z,76.87
2022-11-09T23:43:55.913Z,76.73
2022-11-09T23:46:23.857Z,76.51
2022-11-09T23:48:51.871Z,76.74
2022-11-09T23:51:20.677Z,77.18
2022-11-09T23:53:48.663Z,76.87
2022-11-09T23:56:16.684Z,77.33
2022-11-09T23:58:49.138Z,77.21
